Onweer radar Meer informatie blitzortung!


Regen radar Meer informatie rain snow radar


Bezoek ook deze websites:

Template documentation
and downloads

And another site


Het weer levert geen direct gevaar op.    Er zijn geen waarschuwingen afgegeven.

METAR rapporten vliegvelden

   
EHVK - Volkel Rnlafb, Netherlands
Afstand tot: ZW 18 km
Gewijzigd: Jun 6 2020 7:55 pm
Grotendeels bewolkt  
Grotendeels bewolkt  
   Wind: ZW 37 km/h
Wind: ZW 37 km/h
Temperatuur: 14°C
Dauwpunt: 1°C
Vochtigheid: 41%
Barometer: 1000 hPa
Bewolking: Grotendeels bewolkt
Zicht: meer dan 10 km
Bewolking: Grotendeels bewolkt 2103.1 m
EHVK 061755Z AUTO 23020KT 200V270 9999 BKN069 14/01 Q1000 BLU
EDLV - Niederrhein, Germany
Afstand tot: ZO 25 km
Gewijzigd: Jun 5 2020 6:20 pm
Verouderd
Gedeeltelijk bewolkt  
Gedeeltelijk bewolkt  
   Wind: Westen 24.1 km/h
Wind: Westen 24.1 km/h
Temperatuur: 12°C
Dauwpunt: 8°C
Vochtigheid: 77%
Barometer: 993 hPa
Bewolking: Gedeeltelijk bewolkt
Zicht: meer dan 10 km
Bewolking: Gedeeltelijk bewolkt 609.6 m
EDLV 051620Z 28013KT 9999 SCT020 12/08 Q0993
EHDL - Deelen Rnlafb, Netherlands
Afstand tot: N 35 km
Gewijzigd: Jun 6 2020 7:55 pm
Bewolking  
Bewolking  
   Wind: ZW 24.1 km/h
Wind: ZW 24.1 km/h
Temperatuur: 14°C
Dauwpunt: 3°C
Vochtigheid: 48%
Barometer: 1000 hPa
Bewolking: Bewolking
Zicht: meer dan 10 km
Bewolking: Gedeeltelijk bewolkt 1645.9 m,
Gedeeltelijk bewolkt 1828.8 m,
Bewolking 2011.7 m
EHDL 061755Z AUTO 22013KT 170V290 9999 SCT054 SCT060 OVC066 14/03 Q1000 BLU
EHEH - Eindhoven Rnlafb, Netherlands
Afstand tot: ZW 48 km
Gewijzigd: Jun 6 2020 7:55 pm
Gedeeltelijk bewolkt  
Gedeeltelijk bewolkt  
   Wind: ZW 27.8 km/h
Wind: ZW 27.8 km/h
Temperatuur: 14°C
Dauwpunt: 2°C
Vochtigheid: 44%
Barometer: 1001 hPa
Bewolking: Gedeeltelijk bewolkt
Zicht: meer dan 10 km
Bewolking: Gedeeltelijk bewolkt 1981.2 m,
Gedeeltelijk bewolkt 2164.1 m
EHEH 061755Z AUTO 23015KT 190V280 9999 SCT065 SCT071 14/02 Q1001 BLU 23015G28KT CAVOK
EHGR - Gilze-Rijen Rnla, Netherlands
Afstand tot: WZW 70 km
Gewijzigd: Jun 6 2020 7:55 pm
Bewolking  
Bewolking  
   Wind: ZW 16.7 km/h
Wind: ZW 16.7 km/h
Temperatuur: 14°C
Dauwpunt: 3°C
Vochtigheid: 48%
Barometer: 1000 hPa
Bewolking: Bewolking
Zicht: meer dan 10 km
Bewolking: Bewolking 1524 m
EHGR 061755Z AUTO 23009KT 190V290 9999 OVC050 14/03 Q1000 BLU
EBBL - Kleine-Brogel(Ba, Belgium
Afstand tot: ZZW 71 km
Gewijzigd: Jun 6 2020 7:55 pm
Licht bewolkt  
Licht bewolkt  
   Wind: WZW 33.3 km/h<br />Gust to 33.3 km/h
Wind: WZW 33.3 km/h
Gust to 33.3 km/h
Temperatuur: 15°C
Dauwpunt: 1°C
Vochtigheid: 39%
Barometer: 1001 hPa
Bewolking: Licht bewolkt
Zicht: meer dan 10 km
Bewolking: Licht bewolkt 1981.2 m
EBBL 061755Z AUTO 24018G29KT 9999 FEW065/// 15/01 Q1001 BLU

Script ontwikkeld door  Saratoga-weather.org Aangepast voor de template door  Weerstation Leuven

U vindt ons ook hier:

UK Metoffice

Weather Underground